createdAt,value
2023-11-11T00:01:31.679Z,26.25
2023-11-11T00:06:37.057Z,30.75
2023-11-11T00:11:43.437Z,29.50
2023-11-11T00:16:49.668Z,27.75
2023-11-11T00:21:56.076Z,26.50
2023-11-11T00:27:01.095Z,26.50
2023-11-11T00:32:07.377Z,29.25
2023-11-11T00:37:15.589Z,29.50
2023-11-11T00:42:20.958Z,25.75
2023-11-11T00:47:26.142Z,32.75
2023-11-11T00:52:30.929Z,31.25
2023-11-11T00:57:35.895Z,31.00
2023-11-11T01:02:40.964Z,26.75
2023-11-11T01:07:46.255Z,30.25
2023-11-11T01:12:51.869Z,28.25
2023-11-11T01:17:57.422Z,26.00
2023-11-11T01:23:04.236Z,26.50
2023-11-11T01:28:09.666Z,25.75
2023-11-11T01:33:15.591Z,28.50
2023-11-11T01:38:21.407Z,24.75
2023-11-11T01:43:26.645Z,28.50
2023-11-11T01:48:34.086Z,25.50
2023-11-11T01:53:41.365Z,27.50
2023-11-11T01:58:47.028Z,28.75
2023-11-11T02:03:53.610Z,29.75
2023-11-11T02:08:59.431Z,26.50
2023-11-11T02:14:05.064Z,22.00
2023-11-11T02:19:11.868Z,28.25
2023-11-11T02:24:18.061Z,22.50
2023-11-11T02:29:23.229Z,30.75
2023-11-11T02:34:28.927Z,23.75
2023-11-11T02:39:34.834Z,26.75
2023-11-11T02:44:40.002Z,23.00
2023-11-11T02:49:45.509Z,28.50
2023-11-11T02:54:51.251Z,23.00
2023-11-11T02:59:56.438Z,24.00
2023-11-11T03:05:01.745Z,24.50
2023-11-11T03:10:12.648Z,24.75
2023-11-11T03:15:18.491Z,25.00
2023-11-11T03:20:23.778Z,22.00
2023-11-11T03:25:30.265Z,29.25
2023-11-11T03:30:38.493Z,19.75
2023-11-11T03:35:44.607Z,19.75
2023-11-11T03:40:49.963Z,19.50
2023-11-11T03:45:56.220Z,22.25
2023-11-11T03:51:01.620Z,21.00
2023-11-11T03:56:07.158Z,24.25
2023-11-11T04:01:12.411Z,22.25
2023-11-11T04:06:18.632Z,19.75
2023-11-11T04:11:25.051Z,20.75
2023-11-11T04:16:32.728Z,18.75
2023-11-11T04:21:38.112Z,27.50
2023-11-11T04:26:43.500Z,21.25
2023-11-11T04:31:49.602Z,21.50
2023-11-11T04:36:56.449Z,20.25
2023-11-11T04:42:03.075Z,25.00
2023-11-11T04:47:10.037Z,19.50
2023-11-11T04:52:15.638Z,24.00
2023-11-11T04:57:21.262Z,23.25
2023-11-11T05:02:28.076Z,25.75
2023-11-11T05:07:34.288Z,19.00
2023-11-11T05:12:40.222Z,16.50
2023-11-11T05:17:46.243Z,20.00
2023-11-11T05:22:51.506Z,20.75
2023-11-11T05:27:57.214Z,20.75
2023-11-11T05:33:02.664Z,21.00
2023-11-11T05:38:07.909Z,17.00
2023-11-11T05:43:13.139Z,19.50
2023-11-11T05:48:18.959Z,17.75
2023-11-11T05:53:23.927Z,18.50
2023-11-11T05:58:29.068Z,22.75
2023-11-11T06:03:34.236Z,24.00
2023-11-11T06:08:40.689Z,17.75
2023-11-11T06:13:46.048Z,19.00
2023-11-11T06:18:51.317Z,25.75
2023-11-11T06:23:57.913Z,26.25
2023-11-11T06:29:05.823Z,18.00
2023-11-11T06:34:11.151Z,20.75
2023-11-11T06:39:16.432Z,24.75
2023-11-11T06:44:22.725Z,17.25
2023-11-11T06:49:28.312Z,19.50
2023-11-11T06:54:34.242Z,17.25
2023-11-11T06:59:40.181Z,17.75
2023-11-11T07:04:51.321Z,19.50
2023-11-11T07:09:57.262Z,25.00
2023-11-11T07:15:02.958Z,16.75
2023-11-11T07:20:12.546Z,17.75
2023-11-11T07:25:18.775Z,18.75
2023-11-11T07:30:24.647Z,19.50
2023-11-11T07:35:30.437Z,21.50
2023-11-11T07:40:35.503Z,21.00
2023-11-11T07:45:40.196Z,16.00
2023-11-11T07:50:44.628Z,18.75
2023-11-11T07:55:49.258Z,21.75
2023-11-11T08:00:57.313Z,19.50
2023-11-11T08:06:09.620Z,19.25
2023-11-11T08:11:20.166Z,17.00
2023-11-11T08:16:25.650Z,16.75
2023-11-11T08:21:34.000Z,21.50
2023-11-11T08:26:39.074Z,15.75
2023-11-11T08:31:46.084Z,24.50
2023-11-11T08:36:53.548Z,21.00
2023-11-11T08:41:58.512Z,24.25
2023-11-11T08:47:04.975Z,23.25
2023-11-11T08:52:09.797Z,21.25
2023-11-11T08:57:14.361Z,25.25
2023-11-11T09:02:18.857Z,21.25
2023-11-11T09:07:24.423Z,26.50
2023-11-11T09:12:29.126Z,34.75
2023-11-11T09:17:35.219Z,20.50
2023-11-11T09:22:40.132Z,21.75
2023-11-11T09:27:47.183Z,23.25
2023-11-11T09:32:53.925Z,32.25
2023-11-11T09:37:58.889Z,25.50
2023-11-11T09:43:03.508Z,24.50
2023-11-11T09:48:08.476Z,28.25
2023-11-11T09:53:16.825Z,29.00
2023-11-11T09:58:22.160Z,24.00
2023-11-11T10:03:29.859Z,31.50
2023-11-11T10:08:35.684Z,29.25
2023-11-11T10:13:41.295Z,28.50
2023-11-11T10:18:48.269Z,32.25
2023-11-11T10:23:53.217Z,30.75
2023-11-11T10:29:01.784Z,29.25
2023-11-11T10:34:08.024Z,27.75
2023-11-11T10:39:14.242Z,39.75
2023-11-11T10:44:24.522Z,44.75
2023-11-11T10:49:29.935Z,37.25
2023-11-11T10:54:36.869Z,29.00
2023-11-11T10:59:41.532Z,30.75
2023-11-11T11:04:49.749Z,27.50
2023-11-11T11:10:07.020Z,31.75
2023-11-11T11:15:16.379Z,31.25
2023-11-11T11:20:28.765Z,38.25
2023-11-11T11:25:35.055Z,35.00
2023-11-11T11:30:58.133Z,37.75
2023-11-11T11:36:08.618Z,41.00
2023-11-11T11:41:13.511Z,35.00
2023-11-11T11:46:18.225Z,41.00
2023-11-11T11:51:23.451Z,40.50
2023-11-11T11:56:34.908Z,34.25
2023-11-11T12:01:40.172Z,36.00
2023-11-11T12:06:46.580Z,39.00
2023-11-11T12:11:51.378Z,33.25
2023-11-11T12:16:56.080Z,37.00
2023-11-11T12:22:03.707Z,32.75
2023-11-11T12:27:10.175Z,37.75
2023-11-11T12:32:18.684Z,33.00
2023-11-11T12:37:23.644Z,30.00
2023-11-11T12:42:31.069Z,38.00
2023-11-11T12:47:36.614Z,30.25
2023-11-11T12:52:41.822Z,39.75
2023-11-11T12:57:46.642Z,42.25
2023-11-11T13:02:52.739Z,39.00
2023-11-11T13:08:09.681Z,47.50
2023-11-11T13:13:16.453Z,45.00
2023-11-11T13:18:27.725Z,55.75
2023-11-11T13:23:33.162Z,49.75
2023-11-11T13:28:38.052Z,48.25
2023-11-11T13:33:43.555Z,54.00
2023-11-11T13:38:55.818Z,57.75
2023-11-11T13:44:01.325Z,56.50
2023-11-11T13:49:06.936Z,58.25
2023-11-11T13:54:11.335Z,56.00
2023-11-11T13:59:15.971Z,56.00
2023-11-11T14:04:20.739Z,59.75
2023-11-11T14:09:25.620Z,65.25
2023-11-11T14:14:30.910Z,60.00
2023-11-11T14:19:36.009Z,67.75
2023-11-11T14:24:41.896Z,68.75
2023-11-11T14:29:48.899Z,60.25
2023-11-11T14:34:54.165Z,68.00
2023-11-11T14:39:58.664Z,54.75
2023-11-11T14:45:03.253Z,65.25
2023-11-11T14:50:08.319Z,57.50
2023-11-11T14:55:15.889Z,60.00
2023-11-11T15:00:26.407Z,64.25
2023-11-11T15:05:30.944Z,62.75
2023-11-11T15:10:35.337Z,61.25
2023-11-11T15:15:45.593Z,61.75
2023-11-11T15:20:50.497Z,63.00
2023-11-11T15:26:00.819Z,61.00
2023-11-11T15:31:07.014Z,55.75
2023-11-11T15:36:11.513Z,55.50
2023-11-11T15:41:16.082Z,63.50
2023-11-11T15:46:23.119Z,57.50
2023-11-11T15:51:28.365Z,61.00
2023-11-11T15:56:32.855Z,63.50
2023-11-11T16:01:43.634Z,61.25
2023-11-11T16:06:48.148Z,62.00
2023-11-11T16:11:57.386Z,60.25
2023-11-11T16:17:03.461Z,55.75
2023-11-11T16:22:08.469Z,58.75
2023-11-11T16:27:14.215Z,53.00
2023-11-11T16:32:27.245Z,59.50
2023-11-11T16:37:31.909Z,51.50
2023-11-11T16:42:36.572Z,57.00
2023-11-11T16:47:44.681Z,50.00
2023-11-11T16:52:51.473Z,53.75
2023-11-11T16:57:57.776Z,57.50
2023-11-11T17:03:02.876Z,46.75
2023-11-11T17:08:07.617Z,52.00
2023-11-11T17:13:12.562Z,54.00
2023-11-11T17:18:18.622Z,47.00
2023-11-11T17:23:23.996Z,51.50
2023-11-11T17:28:33.282Z,40.75
2023-11-11T17:33:43.231Z,45.00
2023-11-11T17:38:50.945Z,48.00
2023-11-11T17:43:55.858Z,46.00
2023-11-11T17:49:01.672Z,39.25
2023-11-11T17:54:06.220Z,47.75
2023-11-11T17:59:11.660Z,40.00
2023-11-11T18:04:18.045Z,45.25
2023-11-11T18:09:23.246Z,39.00
2023-11-11T18:14:28.349Z,40.00
2023-11-11T18:19:33.399Z,40.25
2023-11-11T18:24:38.773Z,43.25
2023-11-11T18:29:47.359Z,41.75
2023-11-11T18:34:58.481Z,38.75
2023-11-11T18:40:06.765Z,35.75
2023-11-11T18:45:12.063Z,33.00
2023-11-11T18:50:23.138Z,31.75
2023-11-11T18:55:32.049Z,42.00
2023-11-11T19:00:37.491Z,32.25
2023-11-11T19:05:42.671Z,29.25
2023-11-11T19:10:48.673Z,39.75
2023-11-11T19:15:53.738Z,28.75
2023-11-11T19:20:58.816Z,26.25
2023-11-11T19:26:03.898Z,34.00
2023-11-11T19:31:09.492Z,32.50
2023-11-11T19:36:15.190Z,31.25
2023-11-11T19:41:21.295Z,27.00
2023-11-11T19:46:27.914Z,34.75
2023-11-11T19:51:32.878Z,28.25
2023-11-11T19:56:37.720Z,37.75
2023-11-11T20:01:43.271Z,28.50
2023-11-11T20:06:50.488Z,23.25
2023-11-11T20:11:56.503Z,32.25
2023-11-11T20:17:01.750Z,32.75
2023-11-11T20:22:06.919Z,26.25
2023-11-11T20:27:11.744Z,26.00
2023-11-11T20:32:17.096Z,30.75
2023-11-11T20:37:22.260Z,19.75
2023-11-11T20:42:27.619Z,21.00
2023-11-11T20:47:32.800Z,19.00
2023-11-11T20:52:37.910Z,22.00
2023-11-11T20:57:46.056Z,25.25
2023-11-11T21:02:51.717Z,22.00
2023-11-11T21:07:57.559Z,25.00
2023-11-11T21:13:03.637Z,20.75
2023-11-11T21:18:10.249Z,23.00
2023-11-11T21:23:15.390Z,22.00
2023-11-11T21:28:20.498Z,26.00
2023-11-11T21:33:25.545Z,20.25
2023-11-11T21:38:31.576Z,21.75
2023-11-11T21:43:36.500Z,20.50
2023-11-11T21:48:43.304Z,18.00
2023-11-11T21:53:48.465Z,18.00
2023-11-11T21:58:53.654Z,20.25
2023-11-11T22:03:58.772Z,26.50
2023-11-11T22:09:04.287Z,22.00
2023-11-11T22:14:09.303Z,21.75
2023-11-11T22:19:15.037Z,19.50
2023-11-11T22:24:20.086Z,22.25
2023-11-11T22:29:25.717Z,24.50
2023-11-11T22:34:30.769Z,22.50
2023-11-11T22:39:35.663Z,23.75
2023-11-11T22:44:43.126Z,22.25
2023-11-11T22:49:49.905Z,17.00
2023-11-11T22:54:54.972Z,25.75
2023-11-11T22:59:59.755Z,19.75
2023-11-11T23:05:04.770Z,21.75
2023-11-11T23:10:10.671Z,29.75
2023-11-11T23:15:16.467Z,28.25
2023-11-11T23:20:21.627Z,25.00
2023-11-11T23:25:28.355Z,23.00
2023-11-11T23:30:34.365Z,25.25
2023-11-11T23:35:40.155Z,26.00
2023-11-11T23:40:45.554Z,27.75
2023-11-11T23:45:51.331Z,35.00
2023-11-11T23:50:56.477Z,37.25
2023-11-11T23:56:02.006Z,42.75
